sensor_id;sensor_type;location;lat;lon;timestamp;P1;durP1;ratioP1;P2;durP2;ratioP2
59008;SDS011;44794;42.652;23.318;2023-05-19T00:00:56;11.13;;;7.40;;
59008;SDS011;44794;42.652;23.318;2023-05-19T00:03:22;12.75;;;8.50;;
59008;SDS011;44794;42.652;23.318;2023-05-19T00:05:48;15.85;;;7.65;;
59008;SDS011;44794;42.652;23.318;2023-05-19T00:08:17;13.90;;;8.15;;
59008;SDS011;44794;42.652;23.318;2023-05-19T00:10:44;10.93;;;7.97;;
59008;SDS011;44794;42.652;23.318;2023-05-19T00:13:09;12.07;;;8.68;;
59008;SDS011;44794;42.652;23.318;2023-05-19T00:15:35;11.82;;;8.13;;
59008;SDS011;44794;42.652;23.318;2023-05-19T00:18:01;11.57;;;8.70;;
59008;SDS011;44794;42.652;23.318;2023-05-19T00:20:26;12.45;;;8.60;;
59008;SDS011;44794;42.652;23.318;2023-05-19T00:22:52;12.25;;;8.38;;
59008;SDS011;44794;42.652;23.318;2023-05-19T00:25:17;12.57;;;8.18;;
59008;SDS011;44794;42.652;23.318;2023-05-19T00:27:42;11.52;;;7.85;;
59008;SDS011;44794;42.652;23.318;2023-05-19T00:30:08;11.45;;;7.85;;
59008;SDS011;44794;42.652;23.318;2023-05-19T00:32:34;10.30;;;7.68;;
59008;SDS011;44794;42.652;23.318;2023-05-19T00:34:59;12.48;;;8.32;;
59008;SDS011;44794;42.652;23.318;2023-05-19T00:37:25;13.13;;;8.52;;
59008;SDS011;44794;42.652;23.318;2023-05-19T00:39:50;16.63;;;8.70;;
59008;SDS011;44794;42.652;23.318;2023-05-19T00:42:16;10.82;;;8.35;;
59008;SDS011;44794;42.652;23.318;2023-05-19T00:44:41;13.63;;;8.77;;
59008;SDS011;44794;42.652;23.318;2023-05-19T00:47:07;11.50;;;8.68;;
59008;SDS011;44794;42.652;23.318;2023-05-19T00:49:33;10.32;;;8.20;;
59008;SDS011;44794;42.652;23.318;2023-05-19T00:52:00;12.63;;;8.45;;
59008;SDS011;44794;42.652;23.318;2023-05-19T00:54:26;12.80;;;8.55;;
59008;SDS011;44794;42.652;23.318;2023-05-19T00:56:53;9.30;;;7.43;;
59008;SDS011;44794;42.652;23.318;2023-05-19T00:59:19;12.98;;;8.13;;
59008;SDS011;44794;42.652;23.318;2023-05-19T01:01:45;11.57;;;7.53;;
59008;SDS011;44794;42.652;23.318;2023-05-19T01:04:14;10.50;;;7.88;;
59008;SDS011;44794;42.652;23.318;2023-05-19T01:06:45;11.88;;;7.65;;
59008;SDS011;44794;42.652;23.318;2023-05-19T01:09:18;10.60;;;8.05;;
59008;SDS011;44794;42.652;23.318;2023-05-19T01:11:45;10.65;;;7.35;;
59008;SDS011;44794;42.652;23.318;2023-05-19T01:14:10;8.68;;;6.60;;
59008;SDS011;44794;42.652;23.318;2023-05-19T01:16:39;10.27;;;7.20;;
59008;SDS011;44794;42.652;23.318;2023-05-19T01:32:37;13.38;;;8.48;;
59008;SDS011;44794;42.652;23.318;2023-05-19T01:35:06;13.27;;;8.98;;
59008;SDS011;44794;42.652;23.318;2023-05-19T01:37:34;12.90;;;9.13;;
59008;SDS011;44794;42.652;23.318;2023-05-19T01:40:02;16.15;;;9.63;;
59008;SDS011;44794;42.652;23.318;2023-05-19T01:42:29;13.65;;;9.35;;
59008;SDS011;44794;42.652;23.318;2023-05-19T01:45:01;12.20;;;9.48;;
59008;SDS011;44794;42.652;23.318;2023-05-19T01:47:31;13.63;;;8.85;;
59008;SDS011;44794;42.652;23.318;2023-05-19T01:49:59;15.65;;;9.85;;
59008;SDS011;44794;42.652;23.318;2023-05-19T01:52:24;13.60;;;9.48;;
59008;SDS011;44794;42.652;23.318;2023-05-19T01:54:50;14.35;;;9.50;;
59008;SDS011;44794;42.652;23.318;2023-05-19T01:57:21;14.93;;;9.13;;
59008;SDS011;44794;42.652;23.318;2023-05-19T02:08:23;12.95;;;9.77;;
59008;SDS011;44794;42.652;23.318;2023-05-19T02:11:06;16.35;;;9.95;;
59008;SDS011;44794;42.652;23.318;2023-05-19T02:13:40;15.73;;;9.75;;
59008;SDS011;44794;42.652;23.318;2023-05-19T02:16:08;14.00;;;10.20;;
59008;SDS011;44794;42.652;23.318;2023-05-19T02:18:37;12.40;;;9.35;;
59008;SDS011;44794;42.652;23.318;2023-05-19T02:21:04;14.45;;;9.90;;
59008;SDS011;44794;42.652;23.318;2023-05-19T02:23:29;21.33;;;10.05;;
59008;SDS011;44794;42.652;23.318;2023-05-19T02:25:55;15.23;;;10.55;;
59008;SDS011;44794;42.652;23.318;2023-05-19T02:28:20;17.52;;;11.85;;
59008;SDS011;44794;42.652;23.318;2023-05-19T02:30:46;15.50;;;11.60;;
59008;SDS011;44794;42.652;23.318;2023-05-19T02:33:11;16.83;;;11.85;;
59008;SDS011;44794;42.652;23.318;2023-05-19T02:35:37;17.50;;;11.80;;
59008;SDS011;44794;42.652;23.318;2023-05-19T02:38:02;19.55;;;11.52;;
59008;SDS011;44794;42.652;23.318;2023-05-19T02:40:27;18.30;;;12.35;;
59008;SDS011;44794;42.652;23.318;2023-05-19T02:42:53;17.45;;;11.85;;
59008;SDS011;44794;42.652;23.318;2023-05-19T02:45:18;18.20;;;11.60;;
59008;SDS011;44794;42.652;23.318;2023-05-19T02:47:44;18.60;;;12.60;;
59008;SDS011;44794;42.652;23.318;2023-05-19T02:50:10;18.67;;;12.23;;
59008;SDS011;44794;42.652;23.318;2023-05-19T02:52:35;15.70;;;10.90;;
59008;SDS011;44794;42.652;23.318;2023-05-19T02:55:00;19.70;;;12.57;;
59008;SDS011;44794;42.652;23.318;2023-05-19T02:57:27;20.10;;;12.93;;
59008;SDS011;44794;42.652;23.318;2023-05-19T02:59:54;20.13;;;13.30;;
59008;SDS011;44794;42.652;23.318;2023-05-19T03:02:19;21.17;;;13.43;;
59008;SDS011;44794;42.652;23.318;2023-05-19T03:04:44;24.35;;;14.02;;
59008;SDS011;44794;42.652;23.318;2023-05-19T03:07:10;19.15;;;13.25;;
59008;SDS011;44794;42.652;23.318;2023-05-19T03:09:37;19.90;;;13.38;;
59008;SDS011;44794;42.652;23.318;2023-05-19T03:12:03;21.38;;;14.60;;
59008;SDS011;44794;42.652;23.318;2023-05-19T03:14:30;20.65;;;14.27;;
59008;SDS011;44794;42.652;23.318;2023-05-19T03:16:57;24.48;;;14.20;;
59008;SDS011;44794;42.652;23.318;2023-05-19T03:19:23;23.55;;;14.20;;
59008;SDS011;44794;42.652;23.318;2023-05-19T03:21:49;20.67;;;14.23;;
59008;SDS011;44794;42.652;23.318;2023-05-19T03:24:16;21.52;;;14.05;;
59008;SDS011;44794;42.652;23.318;2023-05-19T03:26:42;23.40;;;14.10;;
59008;SDS011;44794;42.652;23.318;2023-05-19T03:29:07;23.45;;;15.80;;
59008;SDS011;44794;42.652;23.318;2023-05-19T03:31:32;25.33;;;15.57;;
59008;SDS011;44794;42.652;23.318;2023-05-19T03:33:58;22.73;;;13.57;;
59008;SDS011;44794;42.652;23.318;2023-05-19T03:36:23;23.45;;;14.90;;
59008;SDS011;44794;42.652;23.318;2023-05-19T03:38:50;22.85;;;14.80;;
59008;SDS011;44794;42.652;23.318;2023-05-19T03:41:15;23.60;;;14.95;;
59008;SDS011;44794;42.652;23.318;2023-05-19T03:43:41;20.70;;;13.50;;
59008;SDS011;44794;42.652;23.318;2023-05-19T03:46:06;22.52;;;15.38;;
59008;SDS011;44794;42.652;23.318;2023-05-19T03:48:31;24.60;;;15.00;;
59008;SDS011;44794;42.652;23.318;2023-05-19T03:50:57;21.63;;;14.98;;
59008;SDS011;44794;42.652;23.318;2023-05-19T03:53:22;21.75;;;15.02;;
59008;SDS011;44794;42.652;23.318;2023-05-19T03:55:48;20.55;;;13.98;;
59008;SDS011;44794;42.652;23.318;2023-05-19T03:58:14;23.40;;;14.80;;
59008;SDS011;44794;42.652;23.318;2023-05-19T04:00:40;24.08;;;14.88;;
59008;SDS011;44794;42.652;23.318;2023-05-19T04:03:06;20.30;;;13.40;;
59008;SDS011;44794;42.652;23.318;2023-05-19T04:05:32;22.35;;;13.43;;
59008;SDS011;44794;42.652;23.318;2023-05-19T04:07:58;21.90;;;13.88;;
59008;SDS011;44794;42.652;23.318;2023-05-19T04:10:23;20.50;;;14.23;;
59008;SDS011;44794;42.652;23.318;2023-05-19T04:12:49;20.23;;;13.13;;
59008;SDS011;44794;42.652;23.318;2023-05-19T04:15:15;19.77;;;13.23;;
59008;SDS011;44794;42.652;23.318;2023-05-19T04:17:40;20.20;;;13.18;;
59008;SDS011;44794;42.652;23.318;2023-05-19T04:20:06;18.45;;;12.77;;
59008;SDS011;44794;42.652;23.318;2023-05-19T04:22:32;19.48;;;12.45;;
59008;SDS011;44794;42.652;23.318;2023-05-19T04:24:57;19.63;;;12.85;;
59008;SDS011;44794;42.652;23.318;2023-05-19T04:27:24;20.00;;;13.13;;
59008;SDS011;44794;42.652;23.318;2023-05-19T04:29:51;21.13;;;13.18;;
59008;SDS011;44794;42.652;23.318;2023-05-19T04:32:18;22.17;;;13.90;;
59008;SDS011;44794;42.652;23.318;2023-05-19T04:34:44;20.60;;;13.60;;
59008;SDS011;44794;42.652;23.318;2023-05-19T04:37:13;19.80;;;13.60;;
59008;SDS011;44794;42.652;23.318;2023-05-19T04:39:40;20.77;;;13.38;;
59008;SDS011;44794;42.652;23.318;2023-05-19T04:42:10;20.13;;;12.68;;
59008;SDS011;44794;42.652;23.318;2023-05-19T04:44:36;19.63;;;12.68;;
59008;SDS011;44794;42.652;23.318;2023-05-19T04:47:04;17.48;;;11.60;;
59008;SDS011;44794;42.652;23.318;2023-05-19T04:49:34;16.75;;;12.35;;
59008;SDS011;44794;42.652;23.318;2023-05-19T04:52:06;20.23;;;12.57;;
59008;SDS011;44794;42.652;23.318;2023-05-19T04:54:34;20.33;;;13.50;;
59008;SDS011;44794;42.652;23.318;2023-05-19T04:57:01;20.02;;;13.20;;
59008;SDS011;44794;42.652;23.318;2023-05-19T04:59:27;22.45;;;13.15;;
59008;SDS011;44794;42.652;23.318;2023-05-19T05:01:53;18.23;;;12.10;;
59008;SDS011;44794;42.652;23.318;2023-05-19T05:04:19;18.63;;;12.52;;
59008;SDS011;44794;42.652;23.318;2023-05-19T05:06:45;17.23;;;10.95;;
59008;SDS011;44794;42.652;23.318;2023-05-19T05:09:16;16.40;;;10.90;;
59008;SDS011;44794;42.652;23.318;2023-05-19T05:11:42;13.82;;;10.40;;
59008;SDS011;44794;42.652;23.318;2023-05-19T05:14:08;14.70;;;10.40;;
59008;SDS011;44794;42.652;23.318;2023-05-19T05:16:34;16.23;;;10.00;;
59008;SDS011;44794;42.652;23.318;2023-05-19T05:19:00;15.70;;;10.32;;
59008;SDS011;44794;42.652;23.318;2023-05-19T05:21:26;14.73;;;9.95;;
59008;SDS011;44794;42.652;23.318;2023-05-19T05:23:52;12.05;;;10.20;;
59008;SDS011;44794;42.652;23.318;2023-05-19T05:26:18;13.82;;;9.25;;
59008;SDS011;44794;42.652;23.318;2023-05-19T05:28:47;13.20;;;9.07;;
59008;SDS011;44794;42.652;23.318;2023-05-19T05:31:13;11.77;;;9.35;;
59008;SDS011;44794;42.652;23.318;2023-05-19T05:33:39;12.55;;;9.32;;
59008;SDS011;44794;42.652;23.318;2023-05-19T05:36:05;16.13;;;9.90;;
59008;SDS011;44794;42.652;23.318;2023-05-19T05:38:30;13.57;;;9.93;;
59008;SDS011;44794;42.652;23.318;2023-05-19T05:40:56;15.48;;;9.90;;
59008;SDS011;44794;42.652;23.318;2023-05-19T05:43:21;13.52;;;9.88;;
59008;SDS011;44794;42.652;23.318;2023-05-19T05:45:47;14.52;;;10.02;;
59008;SDS011;44794;42.652;23.318;2023-05-19T05:48:12;13.63;;;10.20;;
59008;SDS011;44794;42.652;23.318;2023-05-19T05:50:38;13.02;;;9.57;;
59008;SDS011;44794;42.652;23.318;2023-05-19T05:53:06;12.15;;;9.43;;
59008;SDS011;44794;42.652;23.318;2023-05-19T05:55:33;15.63;;;9.48;;
59008;SDS011;44794;42.652;23.318;2023-05-19T05:57:59;13.00;;;8.85;;
59008;SDS011;44794;42.652;23.318;2023-05-19T06:00:26;13.80;;;9.07;;
59008;SDS011;44794;42.652;23.318;2023-05-19T06:02:52;13.27;;;9.27;;
59008;SDS011;44794;42.652;23.318;2023-05-19T06:05:18;12.88;;;9.23;;
59008;SDS011;44794;42.652;23.318;2023-05-19T06:07:44;13.73;;;9.70;;
59008;SDS011;44794;42.652;23.318;2023-05-19T06:10:10;15.80;;;9.57;;
59008;SDS011;44794;42.652;23.318;2023-05-19T06:12:35;12.20;;;8.52;;
59008;SDS011;44794;42.652;23.318;2023-05-19T06:15:04;13.73;;;8.40;;
59008;SDS011;44794;42.652;23.318;2023-05-19T06:17:31;10.95;;;8.35;;
59008;SDS011;44794;42.652;23.318;2023-05-19T06:20:00;11.45;;;8.05;;
59008;SDS011;44794;42.652;23.318;2023-05-19T06:22:26;11.60;;;7.93;;
59008;SDS011;44794;42.652;23.318;2023-05-19T06:24:52;14.85;;;8.55;;
59008;SDS011;44794;42.652;23.318;2023-05-19T06:27:18;14.43;;;8.25;;
59008;SDS011;44794;42.652;23.318;2023-05-19T06:29:43;12.18;;;8.60;;
59008;SDS011;44794;42.652;23.318;2023-05-19T06:32:09;12.40;;;9.55;;
59008;SDS011;44794;42.652;23.318;2023-05-19T06:34:34;12.38;;;7.65;;
59008;SDS011;44794;42.652;23.318;2023-05-19T06:37:02;8.93;;;7.05;;
59008;SDS011;44794;42.652;23.318;2023-05-19T06:39:28;12.50;;;8.35;;
59008;SDS011;44794;42.652;23.318;2023-05-19T06:41:53;10.00;;;8.02;;
59008;SDS011;44794;42.652;23.318;2023-05-19T06:44:19;10.30;;;6.78;;
59008;SDS011;44794;42.652;23.318;2023-05-19T06:46:44;12.35;;;7.25;;
59008;SDS011;44794;42.652;23.318;2023-05-19T06:49:10;12.57;;;7.15;;
59008;SDS011;44794;42.652;23.318;2023-05-19T06:51:35;8.82;;;7.22;;
59008;SDS011;44794;42.652;23.318;2023-05-19T06:54:01;11.93;;;7.50;;
59008;SDS011;44794;42.652;23.318;2023-05-19T06:56:26;13.13;;;7.40;;
59008;SDS011;44794;42.652;23.318;2023-05-19T06:58:52;11.32;;;7.25;;
59008;SDS011;44794;42.652;23.318;2023-05-19T07:01:17;13.40;;;7.05;;
59008;SDS011;44794;42.652;23.318;2023-05-19T07:03:43;8.43;;;6.30;;
59008;SDS011;44794;42.652;23.318;2023-05-19T07:06:08;8.05;;;6.47;;
59008;SDS011;44794;42.652;23.318;2023-05-19T07:08:34;9.30;;;6.30;;
59008;SDS011;44794;42.652;23.318;2023-05-19T07:11:01;9.25;;;6.95;;
59008;SDS011;44794;42.652;23.318;2023-05-19T07:13:26;10.00;;;7.05;;
59008;SDS011;44794;42.652;23.318;2023-05-19T07:15:52;14.07;;;7.20;;
59008;SDS011;44794;42.652;23.318;2023-05-19T07:18:20;10.70;;;6.82;;
59008;SDS011;44794;42.652;23.318;2023-05-19T07:20:46;10.13;;;6.93;;
59008;SDS011;44794;42.652;23.318;2023-05-19T07:23:11;11.90;;;7.05;;
59008;SDS011;44794;42.652;23.318;2023-05-19T07:25:37;9.02;;;7.28;;
59008;SDS011;44794;42.652;23.318;2023-05-19T07:28:02;7.95;;;6.45;;
59008;SDS011;44794;42.652;23.318;2023-05-19T07:30:28;16.38;;;8.30;;
59008;SDS011;44794;42.652;23.318;2023-05-19T07:32:53;10.50;;;7.68;;
59008;SDS011;44794;42.652;23.318;2023-05-19T07:35:19;12.43;;;7.82;;
59008;SDS011;44794;42.652;23.318;2023-05-19T07:37:47;13.18;;;7.68;;
59008;SDS011;44794;42.652;23.318;2023-05-19T07:40:13;10.35;;;8.18;;
59008;SDS011;44794;42.652;23.318;2023-05-19T07:42:39;13.20;;;8.65;;
59008;SDS011;44794;42.652;23.318;2023-05-19T07:45:05;12.05;;;7.80;;
59008;SDS011;44794;42.652;23.318;2023-05-19T07:47:31;11.00;;;7.95;;
59008;SDS011;44794;42.652;23.318;2023-05-19T07:49:56;9.95;;;8.02;;
59008;SDS011;44794;42.652;23.318;2023-05-19T07:52:22;11.15;;;8.23;;
59008;SDS011;44794;42.652;23.318;2023-05-19T07:54:47;18.70;;;9.00;;
59008;SDS011;44794;42.652;23.318;2023-05-19T07:57:13;14.70;;;8.63;;
59008;SDS011;44794;42.652;23.318;2023-05-19T07:59:38;10.50;;;8.68;;
59008;SDS011;44794;42.652;23.318;2023-05-19T08:02:05;13.38;;;8.50;;
59008;SDS011;44794;42.652;23.318;2023-05-19T08:04:30;14.30;;;9.23;;
59008;SDS011;44794;42.652;23.318;2023-05-19T08:06:56;13.40;;;9.40;;
59008;SDS011;44794;42.652;23.318;2023-05-19T08:09:21;13.23;;;9.60;;
59008;SDS011;44794;42.652;23.318;2023-05-19T08:11:47;19.17;;;10.00;;
59008;SDS011;44794;42.652;23.318;2023-05-19T08:14:13;13.32;;;9.57;;
59008;SDS011;44794;42.652;23.318;2023-05-19T08:16:38;15.38;;;9.30;;
59008;SDS011;44794;42.652;23.318;2023-05-19T08:19:06;16.48;;;9.48;;
59008;SDS011;44794;42.652;23.318;2023-05-19T08:21:31;17.52;;;10.27;;
59008;SDS011;44794;42.652;23.318;2023-05-19T08:23:59;19.10;;;10.65;;
59008;SDS011;44794;42.652;23.318;2023-05-19T08:26:25;18.15;;;10.02;;
59008;SDS011;44794;42.652;23.318;2023-05-19T08:28:51;16.17;;;10.10;;
59008;SDS011;44794;42.652;23.318;2023-05-19T08:31:17;15.45;;;10.05;;
59008;SDS011;44794;42.652;23.318;2023-05-19T08:33:43;16.08;;;10.50;;
59008;SDS011;44794;42.652;23.318;2023-05-19T08:36:09;16.52;;;10.23;;
59008;SDS011;44794;42.652;23.318;2023-05-19T08:38:36;17.42;;;10.70;;
59008;SDS011;44794;42.652;23.318;2023-05-19T08:41:01;15.98;;;10.32;;
59008;SDS011;44794;42.652;23.318;2023-05-19T08:43:27;17.15;;;10.93;;
59008;SDS011;44794;42.652;23.318;2023-05-19T08:45:52;15.82;;;10.70;;
59008;SDS011;44794;42.652;23.318;2023-05-19T08:48:21;18.25;;;10.88;;
59008;SDS011;44794;42.652;23.318;2023-05-19T08:50:51;20.13;;;11.32;;
59008;SDS011;44794;42.652;23.318;2023-05-19T08:53:32;15.30;;;10.85;;
59008;SDS011;44794;42.652;23.318;2023-05-19T08:56:11;16.08;;;10.48;;
59008;SDS011;44794;42.652;23.318;2023-05-19T08:58:39;25.23;;;11.02;;
59008;SDS011;44794;42.652;23.318;2023-05-19T09:01:08;17.17;;;11.65;;
59008;SDS011;44794;42.652;23.318;2023-05-19T09:03:36;23.67;;;11.73;;
59008;SDS011;44794;42.652;23.318;2023-05-19T09:06:04;16.42;;;11.82;;
59008;SDS011;44794;42.652;23.318;2023-05-19T09:08:31;17.70;;;11.30;;
59008;SDS011;44794;42.652;23.318;2023-05-19T09:10:57;15.70;;;11.73;;
59008;SDS011;44794;42.652;23.318;2023-05-19T09:13:22;14.27;;;11.35;;
59008;SDS011;44794;42.652;23.318;2023-05-19T09:15:48;19.88;;;11.57;;
59008;SDS011;44794;42.652;23.318;2023-05-19T09:18:14;17.42;;;11.52;;
59008;SDS011;44794;42.652;23.318;2023-05-19T09:20:41;21.05;;;12.07;;
59008;SDS011;44794;42.652;23.318;2023-05-19T09:23:11;17.67;;;11.95;;
59008;SDS011;44794;42.652;23.318;2023-05-19T09:26:01;18.13;;;12.30;;
59008;SDS011;44794;42.652;23.318;2023-05-19T09:28:31;20.25;;;12.38;;
59008;SDS011;44794;42.652;23.318;2023-05-19T09:31:08;18.23;;;11.63;;
59008;SDS011;44794;42.652;23.318;2023-05-19T09:33:35;20.38;;;12.30;;
59008;SDS011;44794;42.652;23.318;2023-05-19T09:36:02;20.02;;;11.48;;
59008;SDS011;44794;42.652;23.318;2023-05-19T09:38:36;20.95;;;12.13;;
59008;SDS011;44794;42.652;23.318;2023-05-19T09:41:03;19.47;;;12.60;;
59008;SDS011;44794;42.652;23.318;2023-05-19T09:43:31;19.27;;;12.40;;
59008;SDS011;44794;42.652;23.318;2023-05-19T09:46:06;20.60;;;12.20;;
59008;SDS011;44794;42.652;23.318;2023-05-19T09:48:35;21.33;;;12.40;;
59008;SDS011;44794;42.652;23.318;2023-05-19T09:51:01;24.20;;;12.38;;
59008;SDS011;44794;42.652;23.318;2023-05-19T09:53:29;22.75;;;13.13;;
59008;SDS011;44794;42.652;23.318;2023-05-19T09:55:56;19.08;;;12.75;;
59008;SDS011;44794;42.652;23.318;2023-05-19T09:58:22;23.35;;;12.73;;
59008;SDS011;44794;42.652;23.318;2023-05-19T10:00:48;21.35;;;12.82;;
59008;SDS011;44794;42.652;23.318;2023-05-19T10:03:14;17.67;;;11.88;;
59008;SDS011;44794;42.652;23.318;2023-05-19T10:05:41;15.25;;;12.15;;
59008;SDS011;44794;42.652;23.318;2023-05-19T10:08:07;20.58;;;12.43;;
59008;SDS011;44794;42.652;23.318;2023-05-19T10:10:36;17.83;;;12.68;;
59008;SDS011;44794;42.652;23.318;2023-05-19T10:13:02;31.63;;;13.63;;
59008;SDS011;44794;42.652;23.318;2023-05-19T10:15:29;19.05;;;11.70;;
59008;SDS011;44794;42.652;23.318;2023-05-19T10:17:55;18.23;;;11.77;;
59008;SDS011;44794;42.652;23.318;2023-05-19T10:20:21;14.82;;;10.98;;
59008;SDS011;44794;42.652;23.318;2023-05-19T10:22:46;15.75;;;10.95;;
59008;SDS011;44794;42.652;23.318;2023-05-19T10:25:12;17.85;;;11.13;;
59008;SDS011;44794;42.652;23.318;2023-05-19T10:27:45;23.83;;;11.73;;
59008;SDS011;44794;42.652;23.318;2023-05-19T10:30:15;20.30;;;11.90;;
59008;SDS011;44794;42.652;23.318;2023-05-19T10:32:45;21.98;;;12.23;;
59008;SDS011;44794;42.652;23.318;2023-05-19T10:38:15;17.83;;;12.15;;
59008;SDS011;44794;42.652;23.318;2023-05-19T10:43:46;23.15;;;12.13;;
59008;SDS011;44794;42.652;23.318;2023-05-19T10:46:22;15.50;;;11.70;;
59008;SDS011;44794;42.652;23.318;2023-05-19T10:48:48;21.70;;;11.68;;
59008;SDS011;44794;42.652;23.318;2023-05-19T10:51:14;22.90;;;12.70;;
59008;SDS011;44794;42.652;23.318;2023-05-19T10:53:40;22.27;;;11.25;;
59008;SDS011;44794;42.652;23.318;2023-05-19T10:56:10;17.38;;;11.25;;
59008;SDS011;44794;42.652;23.318;2023-05-19T11:01:08;19.15;;;11.00;;
59008;SDS011;44794;42.652;23.318;2023-05-19T11:03:47;18.05;;;11.18;;
59008;SDS011;44794;42.652;23.318;2023-05-19T11:06:18;16.40;;;11.70;;
59008;SDS011;44794;42.652;23.318;2023-05-19T11:08:57;16.48;;;10.77;;
59008;SDS011;44794;42.652;23.318;2023-05-19T11:11:25;18.70;;;11.27;;
59008;SDS011;44794;42.652;23.318;2023-05-19T11:13:54;18.75;;;11.20;;
59008;SDS011;44794;42.652;23.318;2023-05-19T11:16:55;17.27;;;11.98;;
59008;SDS011;44794;42.652;23.318;2023-05-19T11:19:24;22.95;;;11.50;;
59008;SDS011;44794;42.652;23.318;2023-05-19T11:21:51;19.67;;;11.30;;
59008;SDS011;44794;42.652;23.318;2023-05-19T11:24:37;15.88;;;11.35;;
59008;SDS011;44794;42.652;23.318;2023-05-19T11:29:55;15.55;;;10.50;;
59008;SDS011;44794;42.652;23.318;2023-05-19T11:32:29;19.67;;;11.15;;
59008;SDS011;44794;42.652;23.318;2023-05-19T11:34:57;16.52;;;10.85;;
59008;SDS011;44794;42.652;23.318;2023-05-19T11:37:24;14.30;;;11.15;;
59008;SDS011;44794;42.652;23.318;2023-05-19T11:39:50;14.13;;;10.30;;
59008;SDS011;44794;42.652;23.318;2023-05-19T11:42:16;15.88;;;10.35;;
59008;SDS011;44794;42.652;23.318;2023-05-19T11:44:43;18.55;;;11.45;;
59008;SDS011;44794;42.652;23.318;2023-05-19T11:47:12;17.60;;;10.37;;
59008;SDS011;44794;42.652;23.318;2023-05-19T11:49:42;18.10;;;11.38;;
59008;SDS011;44794;42.652;23.318;2023-05-19T11:52:16;20.15;;;13.13;;
59008;SDS011;44794;42.652;23.318;2023-05-19T11:54:41;22.58;;;14.45;;
59008;SDS011;44794;42.652;23.318;2023-05-19T11:57:07;30.83;;;16.58;;
59008;SDS011;44794;42.652;23.318;2023-05-19T11:59:35;20.80;;;13.07;;
59008;SDS011;44794;42.652;23.318;2023-05-19T12:02:24;19.02;;;13.68;;
59008;SDS011;44794;42.652;23.318;2023-05-19T12:04:49;19.75;;;13.52;;
59008;SDS011;44794;42.652;23.318;2023-05-19T12:07:15;17.60;;;13.25;;
59008;SDS011;44794;42.652;23.318;2023-05-19T12:09:43;18.33;;;12.05;;
59008;SDS011;44794;42.652;23.318;2023-05-19T12:12:12;20.58;;;12.95;;
59008;SDS011;44794;42.652;23.318;2023-05-19T12:14:42;26.10;;;14.70;;
59008;SDS011;44794;42.652;23.318;2023-05-19T12:17:12;20.05;;;14.50;;
59008;SDS011;44794;42.652;23.318;2023-05-19T12:19:39;27.13;;;15.90;;
59008;SDS011;44794;42.652;23.318;2023-05-19T12:22:07;22.48;;;14.82;;
59008;SDS011;44794;42.652;23.318;2023-05-19T12:24:36;28.35;;;15.20;;
59008;SDS011;44794;42.652;23.318;2023-05-19T12:27:09;20.52;;;13.80;;
59008;SDS011;44794;42.652;23.318;2023-05-19T12:29:38;20.90;;;13.32;;
59008;SDS011;44794;42.652;23.318;2023-05-19T12:32:05;20.88;;;13.35;;
59008;SDS011;44794;42.652;23.318;2023-05-19T12:34:33;18.52;;;12.65;;
59008;SDS011;44794;42.652;23.318;2023-05-19T12:37:00;24.92;;;13.75;;
59008;SDS011;44794;42.652;23.318;2023-05-19T12:39:27;16.92;;;11.90;;
59008;SDS011;44794;42.652;23.318;2023-05-19T12:41:53;19.90;;;13.10;;
59008;SDS011;44794;42.652;23.318;2023-05-19T12:44:26;19.25;;;13.80;;
59008;SDS011;44794;42.652;23.318;2023-05-19T12:46:52;14.75;;;11.52;;
59008;SDS011;44794;42.652;23.318;2023-05-19T12:49:17;15.57;;;11.35;;
59008;SDS011;44794;42.652;23.318;2023-05-19T12:51:50;19.98;;;10.75;;
59008;SDS011;44794;42.652;23.318;2023-05-19T12:54:19;15.82;;;10.55;;
59008;SDS011;44794;42.652;23.318;2023-05-19T12:56:49;12.75;;;9.43;;
59008;SDS011;44794;42.652;23.318;2023-05-19T12:59:25;12.45;;;8.95;;
59008;SDS011;44794;42.652;23.318;2023-05-19T13:01:54;18.23;;;8.63;;
59008;SDS011;44794;42.652;23.318;2023-05-19T13:04:23;20.02;;;9.32;;
59008;SDS011;44794;42.652;23.318;2023-05-19T13:06:50;17.63;;;8.85;;
59008;SDS011;44794;42.652;23.318;2023-05-19T13:09:17;11.38;;;8.25;;
59008;SDS011;44794;42.652;23.318;2023-05-19T13:11:45;9.48;;;7.80;;
59008;SDS011;44794;42.652;23.318;2023-05-19T13:14:19;8.93;;;6.43;;
59008;SDS011;44794;42.652;23.318;2023-05-19T13:16:44;9.90;;;6.97;;
59008;SDS011;44794;42.652;23.318;2023-05-19T13:19:12;9.05;;;6.47;;
59008;SDS011;44794;42.652;23.318;2023-05-19T13:21:38;11.05;;;6.60;;
59008;SDS011;44794;42.652;23.318;2023-05-19T13:24:04;9.38;;;6.60;;
59008;SDS011;44794;42.652;23.318;2023-05-19T13:26:29;13.07;;;7.57;;
59008;SDS011;44794;42.652;23.318;2023-05-19T13:28:55;11.30;;;7.68;;
59008;SDS011;44794;42.652;23.318;2023-05-19T13:31:20;9.75;;;7.72;;
59008;SDS011;44794;42.652;23.318;2023-05-19T13:33:46;9.57;;;7.95;;
59008;SDS011;44794;42.652;23.318;2023-05-19T13:36:11;10.77;;;7.32;;
59008;SDS011;44794;42.652;23.318;2023-05-19T13:38:37;11.43;;;7.57;;
59008;SDS011;44794;42.652;23.318;2023-05-19T13:41:04;10.65;;;8.18;;
59008;SDS011;44794;42.652;23.318;2023-05-19T13:43:29;10.90;;;8.00;;
59008;SDS011;44794;42.652;23.318;2023-05-19T13:45:55;13.75;;;8.43;;
59008;SDS011;44794;42.652;23.318;2023-05-19T13:48:21;13.05;;;8.40;;
59008;SDS011;44794;42.652;23.318;2023-05-19T13:50:46;12.60;;;8.63;;
59008;SDS011;44794;42.652;23.318;2023-05-19T13:53:12;16.30;;;9.60;;
59008;SDS011;44794;42.652;23.318;2023-05-19T13:55:37;11.75;;;8.80;;
59008;SDS011;44794;42.652;23.318;2023-05-19T13:58:03;13.73;;;9.23;;
59008;SDS011;44794;42.652;23.318;2023-05-19T14:00:28;12.88;;;9.15;;
59008;SDS011;44794;42.652;23.318;2023-05-19T14:02:55;12.45;;;9.02;;
59008;SDS011;44794;42.652;23.318;2023-05-19T14:05:21;13.98;;;9.68;;
59008;SDS011;44794;42.652;23.318;2023-05-19T14:07:46;13.63;;;8.93;;
59008;SDS011;44794;42.652;23.318;2023-05-19T14:10:12;14.02;;;9.23;;
59008;SDS011;44794;42.652;23.318;2023-05-19T14:12:37;13.30;;;9.00;;
59008;SDS011;44794;42.652;23.318;2023-05-19T14:15:04;15.30;;;9.82;;
59008;SDS011;44794;42.652;23.318;2023-05-19T14:17:30;18.42;;;9.30;;
59008;SDS011;44794;42.652;23.318;2023-05-19T14:19:56;15.32;;;10.10;;
59008;SDS011;44794;42.652;23.318;2023-05-19T14:22:22;13.85;;;9.95;;
59008;SDS011;44794;42.652;23.318;2023-05-19T14:24:47;15.40;;;9.63;;
59008;SDS011;44794;42.652;23.318;2023-05-19T14:27:13;11.77;;;8.95;;
59008;SDS011;44794;42.652;23.318;2023-05-19T14:29:38;12.07;;;9.02;;
59008;SDS011;44794;42.652;23.318;2023-05-19T14:32:03;12.85;;;9.15;;
59008;SDS011;44794;42.652;23.318;2023-05-19T14:34:29;15.50;;;9.88;;
59008;SDS011;44794;42.652;23.318;2023-05-19T14:36:55;12.95;;;9.10;;
59008;SDS011;44794;42.652;23.318;2023-05-19T14:39:21;13.18;;;9.52;;
59008;SDS011;44794;42.652;23.318;2023-05-19T14:41:46;11.50;;;8.25;;
59008;SDS011;44794;42.652;23.318;2023-05-19T14:44:13;11.30;;;8.95;;
59008;SDS011;44794;42.652;23.318;2023-05-19T14:46:38;11.25;;;8.60;;
59008;SDS011;44794;42.652;23.318;2023-05-19T14:49:04;9.43;;;8.00;;